Terminal Aerodrome Forecast
Issued by NWS Wilmington, OH

Current Version | Previous Version | Text Only | Print | Product List | Glossary Off
Versions: 1 2 3 4 5 6 7 8 9 10 11 12 13 14 15 16 17 18 19 20 21 22 23 24 25 26 27 28 29 30 31

000
FTUS41 KILN 260857 AAA
TAFCVG
TAF AMD
KCVG 260857Z 2609/2712 24006KT P6SM SKC
      TEMPO 2610/2612 4SM BR
     FM261300 24007KT P6SM SCT250
     FM270000 17006KT P6SM BKN100
     FM270700 20006KT P6SM VCSH BKN040=

USA.gov is the U.S. government's official web portal to all federal, state and local government web resources and services.